createdAt,value
2023-08-11T00:02:00.933Z,16.30
2023-08-11T00:05:15.211Z,16.30
2023-08-11T00:08:05.482Z,16.30
2023-08-11T00:10:53.555Z,16.20
2023-08-11T00:13:50.388Z,16.20
2023-08-11T00:16:25.777Z,16.20
2023-08-11T00:18:58.795Z,16.10
2023-08-11T00:21:33.697Z,16.10
2023-08-11T00:24:04.715Z,16.10
2023-08-11T00:27:08.782Z,16.10
2023-08-11T00:30:10.707Z,16.10
2023-08-11T00:32:54.227Z,16.10
2023-08-11T00:35:35.688Z,16.20
2023-08-11T00:38:56.325Z,16.20
2023-08-11T00:41:32.117Z,16.20
2023-08-11T00:44:20.620Z,16.10
2023-08-11T00:47:42.621Z,16.10
2023-08-11T00:51:14.264Z,16.10
2023-08-11T00:54:01.096Z,16.00
2023-08-11T00:56:43.284Z,16.00
2023-08-11T00:59:14.567Z,15.90
2023-08-11T01:02:02.782Z,15.90
2023-08-11T01:04:59.854Z,15.90
2023-08-11T01:08:10.368Z,15.80
2023-08-11T01:11:26.834Z,15.80
2023-08-11T01:14:41.362Z,15.80
2023-08-11T01:17:28.833Z,15.80
2023-08-11T01:20:36.831Z,15.70
2023-08-11T01:23:37.033Z,15.80
2023-08-11T01:26:31.961Z,15.80
2023-08-11T01:29:27.370Z,15.70
2023-08-11T01:32:30.687Z,15.70
2023-08-11T01:35:05.662Z,15.70
2023-08-11T01:37:46.214Z,15.60
2023-08-11T01:40:41.614Z,15.60
2023-08-11T01:43:35.053Z,15.60
2023-08-11T01:46:22.151Z,15.50
2023-08-11T01:49:16.867Z,15.50
2023-08-11T01:51:58.590Z,15.50
2023-08-11T01:54:42.451Z,15.50
2023-08-11T01:58:11.252Z,15.50
2023-08-11T02:01:10.830Z,15.50
2023-08-11T02:04:16.473Z,15.50
2023-08-11T02:07:01.800Z,15.50
2023-08-11T02:09:32.720Z,15.50
2023-08-11T02:12:31.209Z,15.50
2023-08-11T02:15:42.524Z,15.50
2023-08-11T02:18:16.200Z,15.50
2023-08-11T02:21:17.524Z,15.40
2023-08-11T02:24:13.774Z,15.40
2023-08-11T02:27:15.411Z,15.40
2023-08-11T02:30:46.090Z,15.40
2023-08-11T02:33:41.950Z,15.30
2023-08-11T02:36:22.874Z,15.30
2023-08-11T02:39:23.771Z,15.30
2023-08-11T02:42:04.766Z,15.30
2023-08-11T02:44:47.099Z,15.20
2023-08-11T02:47:48.253Z,15.20
2023-08-11T02:51:10.126Z,15.20
2023-08-11T02:53:55.835Z,15.20
2023-08-11T02:56:43.284Z,15.10
2023-08-11T02:59:27.711Z,15.10
2023-08-11T03:02:03.950Z,15.10
2023-08-11T03:04:50.519Z,15.10
2023-08-11T03:08:03.220Z,15.10
2023-08-11T03:10:56.172Z,15.10
2023-08-11T03:13:48.786Z,15.10
2023-08-11T03:16:35.511Z,15.00
2023-08-11T03:19:24.668Z,15.00
2023-08-11T03:22:19.078Z,15.00
2023-08-11T03:25:46.355Z,15.00
2023-08-11T03:28:19.839Z,15.00
2023-08-11T03:31:01.933Z,14.90
2023-08-11T03:33:54.488Z,14.90
2023-08-11T03:36:53.139Z,14.90
2023-08-11T03:39:27.646Z,14.90
2023-08-11T03:42:25.611Z,14.80
2023-08-11T03:45:09.481Z,14.80
2023-08-11T03:47:57.232Z,14.80
2023-08-11T03:50:53.461Z,14.80
2023-08-11T03:53:41.793Z,14.80
2023-08-11T03:56:39.605Z,14.80
2023-08-11T04:00:10.675Z,14.80
2023-08-11T04:02:52.825Z,14.80
2023-08-11T04:05:41.388Z,14.80
2023-08-11T04:08:25.208Z,14.70
2023-08-11T04:11:09.937Z,14.70
2023-08-11T04:13:46.149Z,14.70
2023-08-11T04:16:57.282Z,14.70
2023-08-11T04:19:49.240Z,14.60
2023-08-11T04:22:38.530Z,14.70
2023-08-11T04:25:18.633Z,14.60
2023-08-11T04:28:02.225Z,14.60
2023-08-11T04:31:34.761Z,14.70
2023-08-11T04:34:11.775Z,14.70
2023-08-11T04:36:51.311Z,14.70
2023-08-11T04:39:39.918Z,14.70
2023-08-11T04:42:37.890Z,14.70
2023-08-11T04:45:38.220Z,14.80
2023-08-11T04:48:50.380Z,14.80
2023-08-11T04:51:36.973Z,14.80
2023-08-11T04:54:48.990Z,14.90
2023-08-11T04:57:30.646Z,14.90
2023-08-11T05:00:15.290Z,15.00
2023-08-11T05:02:57.941Z,15.00
2023-08-11T05:06:06.677Z,15.00
2023-08-11T05:09:01.357Z,15.10
2023-08-11T05:11:52.499Z,15.10
2023-08-11T05:14:31.469Z,15.10
2023-08-11T05:17:14.130Z,15.20
2023-08-11T05:20:00.778Z,15.20
2023-08-11T05:23:01.277Z,15.30
2023-08-11T05:26:23.758Z,15.40
2023-08-11T05:29:15.196Z,15.50
2023-08-11T05:32:01.381Z,15.50
2023-08-11T05:35:06.578Z,15.60
2023-08-11T05:37:52.573Z,15.60
2023-08-11T05:40:33.663Z,15.70
2023-08-11T05:43:39.069Z,15.80
2023-08-11T05:46:56.283Z,15.80
2023-08-11T05:49:40.733Z,15.90
2023-08-11T05:52:21.434Z,16.00
2023-08-11T05:55:38.489Z,16.00
2023-08-11T05:59:08.368Z,16.10
2023-08-11T06:02:05.775Z,16.20
2023-08-11T06:04:54.491Z,16.30
2023-08-11T06:07:37.676Z,16.40
2023-08-11T06:10:33.893Z,16.50
2023-08-11T06:13:08.825Z,16.50
2023-08-11T06:15:56.886Z,16.60
2023-08-11T06:19:10.416Z,16.70
2023-08-11T06:21:56.424Z,16.80
2023-08-11T06:24:39.298Z,16.90
2023-08-11T06:27:31.358Z,17.00
2023-08-11T06:30:22.745Z,17.00
2023-08-11T06:33:16.633Z,17.20
2023-08-11T06:36:00.818Z,17.20
2023-08-11T06:38:57.518Z,17.30
2023-08-11T06:41:38.734Z,17.40
2023-08-11T06:44:13.321Z,17.50
2023-08-11T06:47:20.705Z,17.60
2023-08-11T06:50:17.703Z,17.70
2023-08-11T06:53:30.720Z,17.80
2023-08-11T06:56:23.614Z,17.90
2023-08-11T06:59:03.602Z,18.00
2023-08-11T07:01:44.406Z,18.10
2023-08-11T07:04:31.336Z,18.30
2023-08-11T07:07:17.181Z,18.40
2023-08-11T07:10:04.923Z,18.50
2023-08-11T07:12:47.165Z,18.60
2023-08-11T07:15:17.111Z,18.70
2023-08-11T07:18:14.986Z,18.80
2023-08-11T07:21:32.542Z,19.00
2023-08-11T07:24:57.650Z,19.10
2023-08-11T07:27:58.144Z,19.30
2023-08-11T07:30:44.976Z,19.40
2023-08-11T07:33:30.721Z,19.60
2023-08-11T07:36:31.708Z,19.70
2023-08-11T07:39:21.192Z,19.90
2023-08-11T07:42:03.680Z,20.00
2023-08-11T07:44:47.424Z,20.20
2023-08-11T07:47:52.147Z,20.40
2023-08-11T07:50:47.902Z,20.50
2023-08-11T07:53:37.536Z,20.70
2023-08-11T07:56:11.442Z,20.90
2023-08-11T07:59:07.216Z,21.00
2023-08-11T08:02:06.228Z,21.20
2023-08-11T08:05:19.715Z,21.40
2023-08-11T08:07:53.870Z,21.50
2023-08-11T08:10:38.907Z,21.70
2023-08-11T08:13:19.695Z,21.80
2023-08-11T08:16:20.321Z,22.00
2023-08-11T08:19:06.722Z,22.10
2023-08-11T08:21:42.064Z,22.30
2023-08-11T08:24:33.137Z,22.50
2023-08-11T08:27:18.862Z,22.60
2023-08-11T08:30:08.279Z,22.80
2023-08-11T08:32:49.777Z,22.90
2023-08-11T08:35:40.208Z,23.00
2023-08-11T08:38:14.384Z,23.20
2023-08-11T08:40:45.640Z,23.30
2023-08-11T08:43:34.797Z,23.40
2023-08-11T08:46:33.804Z,23.50
2023-08-11T08:49:35.716Z,23.70
2023-08-11T08:52:31.215Z,23.80
2023-08-11T08:55:33.474Z,23.90
2023-08-11T08:58:33.832Z,24.00
2023-08-11T09:01:08.368Z,24.20
2023-08-11T09:04:09.816Z,24.30
2023-08-11T09:07:18.394Z,24.40
2023-08-11T09:10:24.281Z,24.60
2023-08-11T09:12:55.021Z,24.70
2023-08-11T09:15:56.102Z,24.80
2023-08-11T09:18:45.351Z,24.90
2023-08-11T09:21:18.015Z,25.00
2023-08-11T09:24:15.703Z,25.10
2023-08-11T09:27:09.187Z,25.20
2023-08-11T09:29:53.216Z,25.40
2023-08-11T09:32:58.409Z,25.40
2023-08-11T09:35:59.275Z,25.60
2023-08-11T09:38:40.196Z,25.70
2023-08-11T09:41:15.570Z,25.80
2023-08-11T09:44:01.490Z,25.90
2023-08-11T09:46:39.639Z,26.00
2023-08-11T09:49:20.850Z,26.00
2023-08-11T09:51:54.912Z,26.10
2023-08-11T09:54:55.772Z,26.20
2023-08-11T09:57:35.384Z,26.20
2023-08-11T10:01:20.897Z,26.30
2023-08-11T10:04:13.677Z,26.40
2023-08-11T10:07:15.620Z,26.50
2023-08-11T10:09:59.794Z,26.60
2023-08-11T10:12:57.505Z,26.70
2023-08-11T10:16:11.264Z,26.80
2023-08-11T10:19:09.882Z,26.90
2023-08-11T10:22:14.983Z,27.00
2023-08-11T10:25:18.904Z,27.10
2023-08-11T10:28:21.558Z,27.20
2023-08-11T10:31:37.167Z,27.20
2023-08-11T10:34:34.491Z,27.30
2023-08-11T10:37:14.942Z,27.40
2023-08-11T10:39:50.454Z,27.50
2023-08-11T10:42:21.527Z,27.50
2023-08-11T10:45:51.015Z,27.60
2023-08-11T10:49:09.040Z,27.70
2023-08-11T10:52:10.383Z,27.80
2023-08-11T10:54:51.276Z,27.80
2023-08-11T10:57:32.467Z,27.80
2023-08-11T11:00:37.385Z,27.90
2023-08-11T11:03:12.855Z,27.90
2023-08-11T11:05:54.029Z,28.00
2023-08-11T11:08:54.830Z,28.10
2023-08-11T11:11:37.874Z,28.10
2023-08-11T11:14:11.672Z,28.20
2023-08-11T11:16:56.473Z,28.20
2023-08-11T11:20:03.494Z,28.30
2023-08-11T11:23:02.318Z,28.30
2023-08-11T11:25:58.628Z,28.40
2023-08-11T11:28:55.784Z,28.50
2023-08-11T11:31:51.063Z,28.50
2023-08-11T11:34:34.583Z,28.60
2023-08-11T11:37:14.560Z,28.70
2023-08-11T11:39:55.382Z,28.70
2023-08-11T11:42:55.728Z,28.70
2023-08-11T11:45:56.425Z,28.90
2023-08-11T11:49:24.403Z,28.90
2023-08-11T11:52:40.185Z,29.00
2023-08-11T11:55:45.836Z,29.20
2023-08-11T11:58:30.059Z,29.30
2023-08-11T12:01:14.413Z,29.40
2023-08-11T12:03:57.695Z,29.50
2023-08-11T12:07:14.668Z,29.60
2023-08-11T12:10:19.192Z,29.70
2023-08-11T12:13:06.324Z,29.80
2023-08-11T12:16:03.453Z,30.00
2023-08-11T12:18:52.558Z,30.10
2023-08-11T12:21:45.451Z,30.20
2023-08-11T12:24:32.844Z,30.40
2023-08-11T12:27:43.585Z,30.40
2023-08-11T12:30:27.514Z,30.50
2023-08-11T12:33:21.704Z,30.50
2023-08-11T12:36:03.902Z,30.60
2023-08-11T12:38:48.495Z,30.60
2023-08-11T12:41:20.208Z,30.70
2023-08-11T12:44:08.311Z,30.80
2023-08-11T12:46:58.299Z,30.90
2023-08-11T12:49:54.069Z,31.00
2023-08-11T12:52:39.306Z,31.10
2023-08-11T12:55:23.350Z,31.20
2023-08-11T12:58:05.174Z,31.30
2023-08-11T13:00:43.792Z,31.40
2023-08-11T13:03:26.976Z,31.40
2023-08-11T13:06:31.761Z,31.50
2023-08-11T13:09:08.889Z,31.70
2023-08-11T13:11:43.222Z,32.00
2023-08-11T13:14:40.852Z,32.10
2023-08-11T13:17:56.174Z,32.50
2023-08-11T13:20:36.905Z,32.80
2023-08-11T13:23:36.102Z,33.10
2023-08-11T13:26:44.692Z,33.40
2023-08-11T13:29:32.994Z,33.90
2023-08-11T13:32:49.205Z,34.30
2023-08-11T13:35:26.141Z,34.80
2023-08-11T13:38:02.270Z,35.30
2023-08-11T13:40:50.970Z,35.60
2023-08-11T13:43:47.143Z,36.10
2023-08-11T13:46:26.658Z,36.40
2023-08-11T13:49:20.638Z,36.70
2023-08-11T13:52:41.031Z,37.00
2023-08-11T13:55:29.290Z,37.30
2023-08-11T13:58:19.812Z,37.40
2023-08-11T14:01:08.881Z,37.60
2023-08-11T14:04:04.108Z,37.80
2023-08-11T14:07:26.709Z,37.90
2023-08-11T14:10:21.381Z,38.00
2023-08-11T14:13:09.055Z,38.30
2023-08-11T14:15:56.445Z,38.50
2023-08-11T14:18:27.886Z,38.60
2023-08-11T14:21:00.063Z,38.80
2023-08-11T14:23:38.833Z,39.00
2023-08-11T14:26:49.403Z,39.30
2023-08-11T14:29:55.292Z,39.60
2023-08-11T14:33:00.681Z,39.80
2023-08-11T14:36:03.459Z,39.80
2023-08-11T14:38:35.115Z,39.70
2023-08-11T14:41:23.147Z,39.60
2023-08-11T14:44:13.459Z,39.60
2023-08-11T14:47:17.112Z,39.70
2023-08-11T14:49:51.015Z,39.90
2023-08-11T14:52:56.837Z,40.10
2023-08-11T14:55:51.895Z,40.20
2023-08-11T14:58:38.406Z,40.20
2023-08-11T15:01:32.287Z,40.20
2023-08-11T15:04:30.167Z,40.20
2023-08-11T15:07:08.907Z,40.10
2023-08-11T15:10:05.997Z,40.10
2023-08-11T15:13:06.116Z,40.10
2023-08-11T15:15:46.089Z,40.10
2023-08-11T15:18:42.776Z,40.00
2023-08-11T15:21:28.132Z,39.90
2023-08-11T15:24:24.809Z,39.80
2023-08-11T15:27:19.907Z,39.80
2023-08-11T15:30:20.462Z,39.80
2023-08-11T15:33:09.077Z,39.90
2023-08-11T15:36:10.184Z,40.10
2023-08-11T15:39:00.954Z,40.30
2023-08-11T15:41:40.049Z,40.60
2023-08-11T15:44:38.102Z,40.80
2023-08-11T15:47:38.348Z,40.80
2023-08-11T15:50:14.345Z,41.00
2023-08-11T15:53:00.339Z,41.10
2023-08-11T15:55:59.945Z,41.40
2023-08-11T15:58:57.197Z,41.70
2023-08-11T16:01:32.505Z,42.20
2023-08-11T16:04:13.393Z,42.50
2023-08-11T16:07:14.319Z,42.70
2023-08-11T16:10:29.480Z,42.80
2023-08-11T16:13:27.451Z,42.90
2023-08-11T16:16:23.178Z,42.90
2023-08-11T16:19:22.895Z,42.90
2023-08-11T16:21:56.044Z,42.80
2023-08-11T16:24:42.590Z,42.50
2023-08-11T16:27:27.423Z,41.90
2023-08-11T16:30:12.022Z,41.20
2023-08-11T16:32:48.230Z,40.40
2023-08-11T16:35:38.466Z,39.60
2023-08-11T16:38:42.071Z,38.90
2023-08-11T16:41:24.450Z,38.10
2023-08-11T16:44:16.758Z,37.40
2023-08-11T16:47:14.611Z,36.90
2023-08-11T16:50:12.853Z,36.60
2023-08-11T16:53:03.154Z,36.40
2023-08-11T16:55:55.669Z,36.10
2023-08-11T16:58:26.287Z,35.80
2023-08-11T17:01:11.750Z,35.50
2023-08-11T17:03:43.655Z,35.20
2023-08-11T17:06:44.567Z,34.80
2023-08-11T17:09:28.921Z,34.30
2023-08-11T17:12:32.120Z,34.10
2023-08-11T17:15:18.471Z,34.00
2023-08-11T17:18:18.114Z,34.00
2023-08-11T17:21:35.764Z,34.30
2023-08-11T17:24:16.100Z,34.60
2023-08-11T17:27:01.688Z,35.00
2023-08-11T17:29:46.701Z,35.20
2023-08-11T17:32:30.259Z,35.40
2023-08-11T17:35:12.731Z,35.50
2023-08-11T17:38:32.401Z,35.50
2023-08-11T17:41:05.143Z,35.40
2023-08-11T17:43:44.177Z,35.20
2023-08-11T17:46:29.913Z,34.90
2023-08-11T17:49:05.673Z,34.50
2023-08-11T17:52:00.991Z,34.10
2023-08-11T17:54:47.384Z,33.50
2023-08-11T17:57:45.473Z,33.00
2023-08-11T18:00:22.070Z,32.40
2023-08-11T18:03:05.480Z,32.00
2023-08-11T18:05:50.531Z,31.50
2023-08-11T18:08:44.388Z,31.00
2023-08-11T18:11:41.001Z,30.60
2023-08-11T18:14:33.089Z,30.20
2023-08-11T18:17:45.338Z,29.80
2023-08-11T18:20:16.787Z,29.40
2023-08-11T18:23:13.070Z,29.10
2023-08-11T18:26:40.647Z,28.70
2023-08-11T18:29:21.177Z,28.40
2023-08-11T18:32:22.464Z,28.10
2023-08-11T18:35:03.394Z,27.80
2023-08-11T18:37:34.114Z,27.60
2023-08-11T18:40:36.240Z,27.40
2023-08-11T18:43:33.481Z,27.20
2023-08-11T18:46:11.892Z,27.00
2023-08-11T18:49:04.122Z,26.80
2023-08-11T18:51:35.874Z,26.60
2023-08-11T18:54:21.970Z,26.50
2023-08-11T18:57:15.766Z,26.30
2023-08-11T19:00:02.175Z,26.20
2023-08-11T19:02:45.911Z,26.00
2023-08-11T19:05:28.887Z,25.90
2023-08-11T19:08:16.999Z,25.80
2023-08-11T19:11:04.019Z,25.70
2023-08-11T19:13:54.710Z,25.50
2023-08-11T19:17:08.435Z,25.40
2023-08-11T19:20:01.482Z,25.30
2023-08-11T19:22:52.600Z,25.20
2023-08-11T19:25:36.429Z,25.10
2023-08-11T19:28:25.104Z,25.00
2023-08-11T19:31:33.619Z,24.90
2023-08-11T19:34:50.937Z,24.80
2023-08-11T19:37:39.218Z,24.70
2023-08-11T19:40:23.354Z,24.60
2023-08-11T19:43:18.280Z,24.50
2023-08-11T19:46:13.063Z,24.40
2023-08-11T19:48:45.947Z,24.40
2023-08-11T19:51:47.224Z,24.30
2023-08-11T19:54:39.239Z,24.20
2023-08-11T19:57:10.366Z,24.10
2023-08-11T19:59:54.209Z,24.10
2023-08-11T20:02:31.251Z,24.00
2023-08-11T20:05:28.055Z,23.90
2023-08-11T20:08:36.711Z,23.90
2023-08-11T20:11:17.333Z,23.80
2023-08-11T20:14:07.838Z,23.70
2023-08-11T20:17:12.343Z,23.60
2023-08-11T20:19:59.581Z,23.60
2023-08-11T20:22:49.085Z,23.50
2023-08-11T20:26:06.105Z,23.40
2023-08-11T20:28:51.082Z,23.30
2023-08-11T20:31:38.193Z,23.20
2023-08-11T20:34:19.301Z,23.20
2023-08-11T20:37:09.897Z,23.10
2023-08-11T20:39:41.579Z,23.00
2023-08-11T20:42:32.508Z,23.00
2023-08-11T20:45:21.198Z,22.90
2023-08-11T20:48:01.876Z,22.90
2023-08-11T20:50:54.464Z,22.80
2023-08-11T20:53:50.594Z,22.80
2023-08-11T20:56:50.057Z,22.70
2023-08-11T21:00:03.090Z,22.70
2023-08-11T21:02:38.152Z,22.70
2023-08-11T21:05:26.829Z,22.60
2023-08-11T21:08:37.264Z,22.60
2023-08-11T21:11:37.080Z,22.60
2023-08-11T21:14:22.292Z,22.50
2023-08-11T21:17:32.126Z,22.50
2023-08-11T21:20:05.144Z,22.40
2023-08-11T21:22:58.307Z,22.40
2023-08-11T21:25:38.915Z,22.40
2023-08-11T21:28:19.413Z,22.30
2023-08-11T21:31:41.177Z,22.30
2023-08-11T21:34:18.318Z,22.30
2023-08-11T21:37:01.748Z,22.20
2023-08-11T21:40:00.307Z,22.20
2023-08-11T21:42:33.039Z,22.20
2023-08-11T21:45:21.272Z,22.10
2023-08-11T21:47:55.910Z,22.10
2023-08-11T21:50:41.672Z,22.00
2023-08-11T21:53:35.592Z,22.00
2023-08-11T21:56:11.341Z,21.90
2023-08-11T21:59:10.583Z,21.90
2023-08-11T22:01:48.070Z,21.80
2023-08-11T22:04:26.405Z,21.80
2023-08-11T22:07:00.136Z,21.80
2023-08-11T22:09:46.424Z,21.80
2023-08-11T22:12:29.453Z,21.70
2023-08-11T22:15:27.913Z,21.70
2023-08-11T22:18:23.506Z,21.60
2023-08-11T22:21:24.182Z,21.60
2023-08-11T22:24:48.191Z,21.60
2023-08-11T22:27:33.989Z,21.50
2023-08-11T22:30:12.920Z,21.50
2023-08-11T22:32:57.200Z,21.40
2023-08-11T22:35:27.246Z,21.40
2023-08-11T22:38:23.327Z,21.30
2023-08-11T22:41:29.236Z,21.30
2023-08-11T22:44:34.388Z,21.20
2023-08-11T22:47:10.228Z,21.20
2023-08-11T22:49:52.194Z,21.10
2023-08-11T22:52:57.752Z,21.10
2023-08-11T22:55:43.737Z,21.10
2023-08-11T22:58:55.789Z,21.10
2023-08-11T23:01:37.339Z,21.00
2023-08-11T23:04:19.287Z,21.00
2023-08-11T23:07:20.676Z,21.00
2023-08-11T23:10:37.172Z,21.00
2023-08-11T23:13:28.443Z,20.90
2023-08-11T23:16:38.095Z,20.90
2023-08-11T23:19:29.679Z,20.90
2023-08-11T23:22:44.186Z,20.90
2023-08-11T23:25:44.307Z,20.90
2023-08-11T23:28:53.526Z,20.90
2023-08-11T23:31:53.837Z,20.80
2023-08-11T23:35:01.839Z,20.80
2023-08-11T23:37:54.852Z,20.80
2023-08-11T23:40:35.251Z,20.80
2023-08-11T23:43:36.645Z,20.80
2023-08-11T23:46:23.781Z,20.80
2023-08-11T23:49:20.737Z,20.80
2023-08-11T23:52:01.119Z,20.80
2023-08-11T23:54:51.364Z,20.80
2023-08-11T23:57:35.488Z,20.80
